Terminal Aerodrome Forecast
Issued by NWS

Home | Current Version | Previous Version | Graphics & Text | Print | Product List | Glossary On
Versions: 1 2 3 4 5 6 7 8 9 10 11 12 13 14 15 16 17 18 19 20 21 22 23 24 25 26
000
FTUS43 KBIS 221350 AAA
TAFJMS
TAF AMD
KJMS 221350Z 2214/2312 35004KT 5SM BR BKN040 OVC080
     FM221500 01010KT 2SM -RASN BR OVC003
     FM222200 01016G24KT P6SM VCSH OVC010
     FM230100 36012KT P6SM BKN015=

USA.gov is the U.S. government's official web portal to all federal, state and local government web resources and services.